Date,TemperatureHighF,TemperatureAvgF,TemperatureLowF,DewpointHighF,DewpointAvgF,DewpointLowF,HumidityHigh,HumidityAvg,HumidityLow,PressureMaxIn,PressureMinIn,WindSpeedMaxMPH,WindSpeedAvgMPH,GustSpeedMaxMPH,PrecipitationSumIn
2013-10-1,78.8,67.6,60.6,68.0,63.8,60.0,98,88,66,30.01,29.93,7,0,8,0.00
2013-10-2,75.1,68.9,65.6,70.0,67.3,64.0,98,94,84,30.04,29.96,2,0,5,0.02
2013-10-3,80.1,71.1,65.0,69.0,66.7,64.0,98,87,67,30.00,29.89,7,1,11,0.01
2013-10-4,82.3,71.3,64.0,73.0,67.9,63.0,97,89,70,30.00,29.92,5,1,9,0.13
2013-10-5,74.9,70.1,64.7,71.0,68.2,64.0,98,93,87,29.96,29.81,5,1,12,1.40
2013-10-6,66.4,57.6,44.5,66.0,56.0,42.0,98,94,78,29.82,29.70,3,0,12,3.08
2013-10-7,61.7,51.2,44.7,50.0,46.0,43.0,95,83,63,30.11,29.79,6,1,10,0.01
2013-10-8,69.4,55.8,44.7,54.0,48.1,43.0,97,78,50,30.21,30.12,6,1,13,0.00
2013-10-9,74.4,58.6,46.7,56.0,50.7,45.0,93,77,52,30.17,30.09,4,0,9,0.00
2013-10-10,76.7,61.2,49.6,59.0,53.7,47.0,92,78,53,30.13,30.01,4,0,5,0.00
2013-10-11,77.6,61.6,49.1,59.0,51.7,47.0,94,73,41,30.05,29.96,3,0,5,0.00
2013-10-12,77.5,64.3,52.4,63.0,56.2,48.0,91,77,52,30.07,29.97,4,0,9,0.00
2013-10-13,72.4,62.6,54.5,62.0,49.2,39.0,95,64,37,30.27,30.07,4,1,10,0.00
2013-10-14,70.6,56.8,45.2,50.0,45.7,41.0,88,68,44,30.28,30.11,5,1,8,0.00
2013-10-15,67.4,60.6,54.1,63.0,57.4,49.0,96,89,79,30.11,29.88,6,1,10,0.04
2013-10-16,63.7,58.1,52.2,62.0,56.6,49.0,97,94,84,29.92,29.83,3,1,9,0.21
2013-10-17,56.3,50.0,44.4,49.0,45.9,43.0,97,86,73,29.95,29.87,4,1,8,0.13
2013-10-18,65.6,52.2,43.2,51.0,45.3,42.0,96,80,50,30.00,29.89,4,0,13,0.01
2013-10-19,52.9,45.7,40.7,45.0,41.2,36.0,96,85,61,29.97,29.83,5,0,9,0.34
2013-10-20,63.1,49.6,38.9,45.0,40.4,36.0,91,73,48,30.00,29.92,6,1,12,0.00
2013-10-21,62.6,51.5,44.0,50.0,44.0,34.0,87,76,60,29.97,29.87,6,1,15,0.00
2013-10-22,52.6,42.4,30.6,41.0,33.1,28.0,92,72,45,30.02,29.76,6,1,8,0.02
2013-10-23,46.4,40.9,34.9,43.0,35.4,31.0,93,81,62,30.05,29.73,6,1,12,0.01
2013-10-24,39.1,35.1,29.5,36.0,31.4,28.0,93,86,70,30.30,30.04,7,0,12,0.02
2013-10-25,49.3,36.6,25.7,32.0,26.8,24.0,95,71,39,30.47,30.26,5,0,9,0.00
2013-10-26,58.3,42.9,31.2,42.0,32.6,26.0,81,68,50,30.26,29.92,6,1,16,0.00
2013-10-27,58.8,44.5,33.0,41.0,33.6,30.0,93,68,40,30.09,30.01,3,0,8,0.00
2013-10-28,63.5,48.0,34.5,38.0,33.7,31.0,90,61,33,30.25,30.05,4,0,7,0.00
2013-10-29,54.5,48.6,40.4,51.0,41.6,33.0,96,77,55,30.29,30.12,4,1,5,0.06
2013-10-30,66.0,58.7,51.7,64.0,57.6,51.0,98,96,87,30.12,29.93,4,0,9,0.28
2013-10-31,66.3,62.2,56.3,64.0,59.7,55.0,97,91,81,29.92,29.30,11,4,31,1.47